Nearby METAR Reports

 

KLXT - Lees Summit Muni, Missouri, USA
Distance from station: E 5mi, 9km
Updated: Mon, 24-Jul-2017 2:53am CDT
Clear
Clear
 Wind from NNE
Wind: NNE 7 mph , 11 km/h
Temperature: 73°F , 23°C
Dew Point: 70°F , 21°C
Humidity: 89%
Barometer: 29.96 inHg , 1014.6 hPa
Clouds: Clear
Visibility: 10 miles , 16 km
2017/07/24 07:53 KLXT 240753Z AUTO 03006KT 10SM CLR 23/21 A2996 RMK AO2 SLP135 T02330206 $
KMKC - Kansas City/Dntn, Missouri, USA
Distance from station: NW 12mi, 19km
Updated: Mon, 24-Jul-2017 2:54am CDT
Clear
Clear
 Wind from NNE
Wind: NNE 6 mph , 9 km/h
Temperature: 75°F , 24°C
Dew Point: 66°F , 19°C
Humidity: 74%
Barometer: 29.95 inHg , 1014.2 hPa
Clouds: Clear
Visibility: 10 miles , 16 km
2017/07/24 07:54 KMKC 240754Z 03005KT 10SM CLR 24/19 A2995 RMK AO2 SLP131 T02440189
 
KIXD - Olathe/Industria, Kansas, USA
Distance from station: WSW 25mi, 41km
Updated: Mon, 24-Jul-2017 2:53am CDT
Mostly cloudy
Mostly cloudy
 Wind from NNE
Wind: NNE 6 mph , 9 km/h
Temperature: 73°F , 23°C
Dew Point: 70°F , 21°C
Humidity: 89%
Barometer: 29.96 inHg , 1014.6 hPa
Clouds: Mostly cloudy
Visibility: 10 miles , 16 km
Cloud details: Mostly cloudy 3500 ft
2017/07/24 07:53 KIXD 240753Z AUTO 02005KT 10SM BKN035 23/21 A2996 RMK AO2 SLP133 T02330211
KMCI - Kansas City/Intl, Missouri, USA
Distance from station: NW 26mi, 42km
Updated: Mon, 24-Jul-2017 2:53am CDT
Partly cloudy
Partly cloudy
 Wind from NE
Wind: NE 7 mph , 11 km/h
Temperature: 73°F , 23°C
Dew Point: 66°F , 19°C
Humidity: 78%
Barometer: 29.97 inHg , 1014.9 hPa
Clouds: Partly cloudy
Visibility: 10 miles , 16 km
Cloud details: Partly cloudy 4700 ft
2017/07/24 07:53 KMCI 240753Z 05006KT 10SM SCT047 23/19 A2997 RMK AO2 SLP135 T02280189
 
KRCM - Warrensburg Skyh, Missouri, USA
Distance from station: ESE 38mi, 62km
Updated: Sat, 22-Jul-2017 10:55pm CDT
NOT Current
Thunderstorm, Overcast
Thunderstorm, Overcast
 Wind from W
Wind: W 13 mph , 20 km/h, Gust: 18 mph , 30 km/h
Temperature: 88°F , 31°C
Heat Index: 98°F , 37°C
Dew Point: 75°F , 24°C
Humidity: 66%
Barometer: 29.85 inHg , 1010.8 hPa
Summary: Thunderstorm
Clouds: Overcast
Visibility: 10 miles , 16 km
Cloud details: Partly cloudy 4100 ft
Partly cloudy 4600 ft
Overcast 6000 ft
2017/07/23 03:55 KRCM 230355Z AUTO 28011G16KT 10SM TS SCT041 SCT046 OVC060 31/24 A2985 RMK AO2 LTG DSNT ALQS
KLWC - Lawrence, Kansas, USA
Distance from station: W 40mi, 65km
Updated: Mon, 24-Jul-2017 2:52am CDT
Mostly cloudy
Mostly cloudy
 Wind from NE
Wind: NE 5 mph , 7 km/h
Temperature: 75°F , 24°C
Dew Point: 68°F , 20°C
Humidity: 78%
Barometer: 29.96 inHg , 1014.6 hPa
Clouds: Mostly cloudy
Visibility: 10 miles , 16 km
Cloud details: Partly cloudy 3600 ft
Mostly cloudy 4500 ft
2017/07/24 07:52 KLWC 240752Z AUTO 05004KT 10SM SCT036 BKN045 24/20 A2996 RMK AO2 SLP134 T02440200 TSNO
 
KSZL - Whiteman Afb, Missouri, USA
Distance from station: ESE 53mi, 86km
Updated: Mon, 24-Jul-2017 2:58am CDT
Clear
Clear
 Wind from NE
Wind: NE 7 mph , 11 km/h
Temperature: 73°F , 23°C
Dew Point: 73°F , 23°C
Humidity: 100%
Barometer: 29.92 inHg , 1013.2 hPa
Clouds: Clear
Visibility: 10 miles , 16 km
2017/07/24 07:58 KSZL 240758Z 05006KT 10SM CLR 23/23 A2992 RMK AO2A SLP126 T02290229 $
KSTJ - St. Joseph, Missouri, USA
Distance from station: NNW 59mi, 95km
Updated: Mon, 24-Jul-2017 2:53am CDT
Clear
Clear
 Wind from calm
Wind: Calm
Temperature: 66°F , 19°C
Dew Point: 64°F , 18°C
Humidity: 94%
Barometer: 29.98 inHg , 1015.2 hPa
Clouds: Clear
Visibility: 10 miles , 16 km
2017/07/24 07:53 KSTJ 240753Z AUTO 00000KT 10SM CLR 19/18 A2998 RMK AO2 SLP142 T01890183 $
 
KGLY - Clinton, Missouri, USA
Distance from station: SE 61mi, 98km
Updated: Mon, 24-Jul-2017 3:15am CDT
Clear
Clear
 Wind from calm
Wind: Calm
Temperature: 72°F , 22°C
Dew Point: 72°F , 22°C
Humidity: 100%
Barometer: 29.93 inHg , 1013.5 hPa
Clouds: Clear
Visibility: 10 miles , 16 km
2017/07/24 08:15 KGLY 240815Z AUTO 00000KT 10SM CLR 22/22 A2993 RMK AO2
KFOE - Topeka/Forbes, Kansas, USA
Distance from station: W 64mi, 103km
Updated: Mon, 24-Jul-2017 2:53am CDT
Clear
Clear
 Wind from NNE
Wind: NNE 5 mph , 7 km/h
Temperature: 77°F , 25°C
Dew Point: 72°F , 22°C
Humidity: 83%
Barometer: 29.97 inHg , 1014.9 hPa
Clouds: Clear
Visibility: 10 miles , 16 km
2017/07/24 07:53 KFOE 240753Z AUTO 03004KT 10SM CLR 25/22 A2997 RMK AO2 SLP134 T02500217
 
KDMO - Sedalia, Missouri, USA
Distance from station: ESE 72mi, 116km
Updated: Mon, 24-Jul-2017 2:53am CDT
Clear
Clear
 Wind from ENE
Wind: ENE 5 mph , 7 km/h
Temperature: 75°F , 24°C
Dew Point: 75°F , 24°C
Humidity: 100%
Barometer: 29.94 inHg , 1013.9 hPa
Clouds: Clear
Visibility: 10 miles , 16 km
2017/07/24 07:53 KDMO 240753Z AUTO 06004KT 10SM CLR 24/24 A2994 RMK AO2 SLP129 T02440239
KCDJ - Chillicothe, Missouri, USA
Distance from station: NE 74mi, 120km
Updated: Mon, 24-Jul-2017 2:52am CDT

 Wind from calm
Wind: Calm
Temperature: 70°F , 21°C
Dew Point: 66°F , 19°C
Humidity: 88%
Barometer: 29.98 inHg , 1015.2 hPa
2017/07/24 07:52 KCDJ 240752Z AUTO 00000KT 21/19 A2998 RMK AO1 SLP135 T02110189
 
KFNB - Falls City/Brenn, Nebraska, USA
Distance from station: NW 96mi, 154km
Updated: Mon, 24-Jul-2017 2:53am CDT
Clear
Clear
 Wind from NNE
Wind: NNE 3 mph , 6 km/h
Temperature: 66°F , 19°C
Dew Point: 63°F , 17°C
Humidity: 88%
Barometer: 29.98 inHg , 1015.2 hPa
Clouds: Clear
Visibility: 10 miles , 16 km
2017/07/24 07:53 KFNB 240753Z AUTO 03003KT 10SM CLR 19/17 A2998 RMK AO2 SLP141 T01940172
KVER - Boonville, Missouri, USA
Distance from station: E 96mi, 154km
Updated: Mon, 24-Jul-2017 3:15am CDT
Clear
Clear
 Wind from NNE
Wind: NNE 3 mph , 6 km/h
Temperature: 73°F , 23°C
Dew Point: 68°F , 20°C
Humidity: 83%
Barometer: 29.93 inHg , 1013.5 hPa
Clouds: Clear
Visibility: 10 miles , 16 km
2017/07/24 08:15 KVER 240815Z AUTO 02003KT 10SM CLR 23/20 A2993 RMK AO2 T02270201